createdAt,value
2023-05-10T00:00:23.873Z,4.00
2023-05-10T00:01:23.860Z,4.00
2023-05-10T00:02:23.953Z,4.00
2023-05-10T00:03:23.877Z,4.00
2023-05-10T00:04:23.814Z,4.00
2023-05-10T00:05:23.788Z,4.00
2023-05-10T00:06:23.782Z,4.00
2023-05-10T00:07:23.781Z,4.00
2023-05-10T00:08:22.550Z,4.00
2023-05-10T00:09:23.741Z,4.00
2023-05-10T00:10:23.731Z,4.00
2023-05-10T00:11:23.728Z,4.00
2023-05-10T00:12:23.709Z,4.00
2023-05-10T00:13:23.790Z,4.00
2023-05-10T00:14:23.686Z,4.00
2023-05-10T00:15:23.679Z,4.00
2023-05-10T00:16:23.719Z,4.00
2023-05-10T00:17:23.764Z,4.00
2023-05-10T00:18:23.615Z,0.00
2023-05-10T00:19:23.608Z,4.00
2023-05-10T00:20:23.590Z,4.00
2023-05-10T00:21:23.589Z,4.00
2023-05-10T00:22:23.587Z,4.00
2023-05-10T00:23:23.547Z,4.00
2023-05-10T00:24:23.536Z,4.00
2023-05-10T00:25:23.538Z,4.00
2023-05-10T00:26:23.514Z,4.00
2023-05-10T00:27:23.493Z,0.00
2023-05-10T00:28:23.480Z,0.00
2023-05-10T00:29:23.467Z,0.00
2023-05-10T00:30:23.452Z,0.00
2023-05-10T00:31:23.495Z,0.00
2023-05-10T00:32:23.542Z,0.00
2023-05-10T00:33:23.415Z,0.00
2023-05-10T00:34:23.404Z,0.00
2023-05-10T00:35:23.403Z,0.00
2023-05-10T00:36:22.179Z,0.00
2023-05-10T00:37:23.362Z,0.00
2023-05-10T00:38:23.357Z,0.00
2023-05-10T00:39:21.884Z,0.00
2023-05-10T00:40:23.346Z,0.00
2023-05-10T00:41:23.318Z,0.00
2023-05-10T00:42:23.303Z,4.00
2023-05-10T00:43:23.280Z,4.00
2023-05-10T00:44:23.259Z,0.00
2023-05-10T00:45:23.257Z,0.00
2023-05-10T00:46:23.296Z,0.00
2023-05-10T00:47:23.296Z,4.00
2023-05-10T00:48:23.227Z,4.00
2023-05-10T00:49:23.194Z,4.00
2023-05-10T00:50:23.187Z,4.00
2023-05-10T00:51:23.175Z,4.00
2023-05-10T00:52:23.155Z,4.00
2023-05-10T00:53:23.138Z,4.00
2023-05-10T00:54:23.157Z,4.00
2023-05-10T00:55:23.133Z,4.00
2023-05-10T00:56:21.868Z,4.00
2023-05-10T00:57:23.086Z,4.00
2023-05-10T00:58:23.079Z,4.00
2023-05-10T00:59:23.090Z,4.00
2023-05-10T01:00:23.055Z,4.00
2023-05-10T01:01:22.879Z,4.00
2023-05-10T01:02:23.065Z,4.00
2023-05-10T01:03:23.086Z,4.00
2023-05-10T01:04:23.003Z,4.00
2023-05-10T01:05:23.089Z,4.00
2023-05-10T01:06:22.966Z,4.00
2023-05-10T01:07:22.952Z,4.00
2023-05-10T01:08:22.959Z,4.00
2023-05-10T01:09:22.927Z,4.00
2023-05-10T01:10:22.916Z,4.00
2023-05-10T01:11:22.898Z,4.00
2023-05-10T01:12:22.905Z,4.00
2023-05-10T01:13:22.965Z,4.00
2023-05-10T01:14:22.363Z,4.00
2023-05-10T01:15:21.910Z,4.00
2023-05-10T01:16:22.875Z,4.00
2023-05-10T01:17:21.940Z,4.00
2023-05-10T01:18:22.818Z,4.00
2023-05-10T01:19:21.929Z,4.00
2023-05-10T01:20:22.782Z,4.00
2023-05-10T01:21:22.784Z,4.00
2023-05-10T01:22:22.765Z,4.00
2023-05-10T01:23:22.753Z,4.00
2023-05-10T01:24:22.742Z,4.00
2023-05-10T01:25:22.714Z,4.00
2023-05-10T01:26:22.711Z,4.00
2023-05-10T01:27:22.713Z,4.00
2023-05-10T01:28:22.683Z,4.00
2023-05-10T01:29:22.670Z,4.00
2023-05-10T01:30:22.688Z,4.00
2023-05-10T01:31:22.709Z,4.00
2023-05-10T01:32:22.669Z,4.00
2023-05-10T01:33:22.645Z,4.00
2023-05-10T01:34:22.591Z,4.00
2023-05-10T01:35:22.580Z,4.00
2023-05-10T01:36:22.563Z,4.00
2023-05-10T01:37:22.560Z,4.00
2023-05-10T01:38:22.537Z,4.00
2023-05-10T01:39:22.536Z,4.00
2023-05-10T01:40:22.508Z,4.00
2023-05-10T01:41:22.496Z,4.00
2023-05-10T01:42:22.495Z,4.00
2023-05-10T01:43:22.451Z,4.00
2023-05-10T01:44:22.445Z,4.00
2023-05-10T01:45:22.434Z,4.00
2023-05-10T01:46:22.477Z,4.00
2023-05-10T01:47:22.414Z,4.00
2023-05-10T01:48:22.404Z,4.00
2023-05-10T01:49:21.195Z,4.00
2023-05-10T01:50:22.385Z,4.00
2023-05-10T01:51:22.372Z,4.00
2023-05-10T01:52:22.349Z,4.00
2023-05-10T01:53:22.330Z,4.00
2023-05-10T01:54:22.328Z,4.00
2023-05-10T01:55:22.314Z,4.00
2023-05-10T01:56:22.296Z,4.00
2023-05-10T01:57:20.862Z,4.00
2023-05-10T01:58:22.260Z,4.00
2023-05-10T01:59:22.256Z,4.00
2023-05-10T02:00:22.247Z,4.00
2023-05-10T02:01:22.373Z,4.00
2023-05-10T02:02:22.227Z,4.00
2023-05-10T02:03:21.257Z,4.00
2023-05-10T02:04:22.193Z,4.00
2023-05-10T02:05:20.822Z,4.00
2023-05-10T02:06:22.153Z,4.00
2023-05-10T02:07:22.146Z,4.00
2023-05-10T02:08:22.155Z,4.00
2023-05-10T02:09:22.139Z,4.00
2023-05-10T02:10:22.113Z,4.00
2023-05-10T02:11:22.070Z,4.00
2023-05-10T02:12:22.086Z,4.00
2023-05-10T02:13:22.093Z,4.00
2023-05-10T02:14:22.055Z,4.00
2023-05-10T02:15:21.213Z,4.00
2023-05-10T02:16:22.040Z,4.00
2023-05-10T02:17:22.014Z,4.00
2023-05-10T02:18:21.992Z,4.00
2023-05-10T02:19:20.537Z,4.00
2023-05-10T02:20:21.954Z,4.00
2023-05-10T02:21:21.952Z,4.00
2023-05-10T02:22:21.933Z,4.00
2023-05-10T02:23:20.501Z,4.00
2023-05-10T02:24:21.910Z,4.00
2023-05-10T02:25:21.912Z,4.00
2023-05-10T02:26:21.900Z,4.00
2023-05-10T02:27:21.861Z,4.00
2023-05-10T02:28:21.877Z,4.00
2023-05-10T02:29:21.847Z,4.00
2023-05-10T02:30:20.919Z,4.00
2023-05-10T02:31:21.830Z,0.00
2023-05-10T02:32:21.870Z,4.00
2023-05-10T02:33:21.794Z,4.00
2023-05-10T02:34:21.783Z,4.00
2023-05-10T02:35:21.764Z,0.00
2023-05-10T02:36:22.235Z,0.00
2023-05-10T02:37:21.012Z,4.00
2023-05-10T02:38:21.761Z,0.00
2023-05-10T02:39:21.712Z,0.00
2023-05-10T02:40:21.683Z,0.00
2023-05-10T02:41:21.703Z,4.00
2023-05-10T02:42:21.677Z,0.00
2023-05-10T02:43:21.652Z,0.00
2023-05-10T02:44:21.646Z,0.00
2023-05-10T02:45:21.628Z,0.00
2023-05-10T02:46:21.631Z,4.00
2023-05-10T02:47:21.604Z,4.00
2023-05-10T02:48:21.577Z,0.00
2023-05-10T02:49:21.567Z,0.00
2023-05-10T02:50:21.557Z,0.00
2023-05-10T02:51:21.544Z,0.00
2023-05-10T02:52:21.561Z,0.00
2023-05-10T02:53:21.502Z,0.00
2023-05-10T02:54:21.495Z,0.00
2023-05-10T02:55:21.468Z,0.00
2023-05-10T02:56:21.489Z,0.00
2023-05-10T02:57:21.478Z,0.00
2023-05-10T02:58:21.453Z,0.00
2023-05-10T02:59:21.420Z,4.00
2023-05-10T03:00:21.428Z,0.00
2023-05-10T03:01:21.474Z,0.00
2023-05-10T03:02:21.404Z,0.00
2023-05-10T03:03:21.381Z,0.00
2023-05-10T03:04:21.391Z,0.00
2023-05-10T03:05:21.345Z,0.00
2023-05-10T03:06:21.341Z,4.00
2023-05-10T03:07:21.324Z,4.00
2023-05-10T03:08:21.301Z,4.00
2023-05-10T03:09:21.289Z,4.00
2023-05-10T03:10:21.280Z,4.00
2023-05-10T03:11:21.290Z,4.00
2023-05-10T03:12:21.268Z,4.00
2023-05-10T03:13:21.301Z,4.00
2023-05-10T03:14:21.237Z,4.00
2023-05-10T03:15:21.229Z,4.00
2023-05-10T03:16:21.272Z,4.00
2023-05-10T03:17:21.196Z,0.00
2023-05-10T03:18:19.801Z,0.00
2023-05-10T03:19:21.181Z,0.00
2023-05-10T03:20:21.136Z,0.00
2023-05-10T03:21:21.136Z,0.00
2023-05-10T03:22:21.108Z,0.00
2023-05-10T03:23:21.102Z,0.00
2023-05-10T03:24:21.093Z,4.00
2023-05-10T03:25:21.093Z,4.00
2023-05-10T03:26:21.080Z,4.00
2023-05-10T03:27:21.044Z,0.00
2023-05-10T03:28:21.036Z,4.00
2023-05-10T03:29:21.028Z,4.00
2023-05-10T03:30:21.023Z,8.00
2023-05-10T03:31:21.061Z,4.00
2023-05-10T03:32:20.995Z,8.00
2023-05-10T03:33:20.004Z,8.00
2023-05-10T03:34:20.000Z,12.00
2023-05-10T03:35:20.905Z,12.00
2023-05-10T03:36:20.907Z,16.00
2023-05-10T03:37:20.914Z,20.00
2023-05-10T03:38:20.906Z,24.00
2023-05-10T03:39:20.881Z,28.00
2023-05-10T03:40:20.881Z,32.00
2023-05-10T03:41:19.912Z,36.00
2023-05-10T03:42:20.845Z,36.00
2023-05-10T03:43:19.875Z,44.00
2023-05-10T03:44:20.827Z,52.00
2023-05-10T03:45:20.810Z,60.00
2023-05-10T03:46:20.791Z,72.00
2023-05-10T03:47:20.791Z,80.00
2023-05-10T03:48:20.749Z,88.00
2023-05-10T03:49:20.757Z,96.00
2023-05-10T03:50:20.726Z,104.00
2023-05-10T03:51:20.747Z,112.00
2023-05-10T03:52:20.735Z,132.00
2023-05-10T03:53:20.714Z,148.00
2023-05-10T03:54:20.666Z,164.00
2023-05-10T03:55:20.656Z,172.00
2023-05-10T03:56:20.637Z,184.00
2023-05-10T03:57:20.650Z,216.00
2023-05-10T03:58:20.624Z,272.00
2023-05-10T03:59:20.606Z,284.00
2023-05-10T04:00:20.606Z,296.00
2023-05-10T04:01:20.585Z,308.00
2023-05-10T04:02:20.615Z,356.00
2023-05-10T04:03:20.605Z,380.00
2023-05-10T04:04:20.606Z,432.00
2023-05-10T04:05:20.522Z,436.00
2023-05-10T04:06:20.554Z,528.00
2023-05-10T04:07:20.523Z,580.00
2023-05-10T04:08:20.489Z,624.00
2023-05-10T04:09:19.988Z,652.00
2023-05-10T04:10:20.461Z,684.00
2023-05-10T04:11:20.429Z,732.00
2023-05-10T04:12:20.433Z,792.00
2023-05-10T04:13:20.507Z,836.00
2023-05-10T04:14:20.394Z,872.00
2023-05-10T04:15:20.383Z,928.00
2023-05-10T04:16:20.422Z,968.00
2023-05-10T04:17:20.394Z,984.00
2023-05-10T04:18:20.354Z,952.00
2023-05-10T04:19:20.339Z,948.00
2023-05-10T04:20:20.308Z,1076.00
2023-05-10T04:21:20.295Z,1128.00
2023-05-10T04:22:19.336Z,1240.00
2023-05-10T04:23:19.328Z,1420.00
2023-05-10T04:24:20.258Z,1472.00
2023-05-10T04:25:20.254Z,1508.00
2023-05-10T04:26:20.272Z,1568.00
2023-05-10T04:27:20.231Z,1588.00
2023-05-10T04:28:20.202Z,1596.00
2023-05-10T04:29:20.218Z,1624.00
2023-05-10T04:30:20.194Z,1628.00
2023-05-10T04:31:19.378Z,1512.00
2023-05-10T04:32:20.171Z,1420.00
2023-05-10T04:33:20.148Z,1368.00
2023-05-10T04:34:20.119Z,1456.00
2023-05-10T04:35:19.333Z,1656.00
2023-05-10T04:36:20.132Z,1952.00
2023-05-10T04:37:20.081Z,2160.00
2023-05-10T04:38:19.320Z,2320.00
2023-05-10T04:39:19.126Z,2504.00
2023-05-10T04:40:20.102Z,2592.00
2023-05-10T04:41:20.055Z,2788.00
2023-05-10T04:42:20.058Z,2896.00
2023-05-10T04:43:18.596Z,3100.00
2023-05-10T04:44:18.651Z,3196.00
2023-05-10T04:45:20.000Z,3344.00
2023-05-10T04:46:20.009Z,4256.00
2023-05-10T04:47:18.767Z,4756.00
2023-05-10T04:48:19.938Z,4020.00
2023-05-10T04:49:19.929Z,4040.00
2023-05-10T04:50:19.919Z,5056.00
2023-05-10T04:51:19.902Z,6088.00
2023-05-10T04:52:19.885Z,6172.00
2023-05-10T04:53:19.875Z,6424.00
2023-05-10T04:54:18.400Z,6188.00
2023-05-10T04:55:19.034Z,5796.00
2023-05-10T04:56:19.836Z,6400.00
2023-05-10T04:57:19.816Z,7748.00
2023-05-10T04:58:19.808Z,8640.00
2023-05-10T04:59:19.295Z,8812.00
2023-05-10T05:00:18.503Z,9280.00
2023-05-10T05:01:18.372Z,10440.00
2023-05-10T05:02:18.294Z,10064.00
2023-05-10T05:03:18.383Z,8312.00
2023-05-10T05:04:19.750Z,8356.00
2023-05-10T05:05:19.761Z,8504.00
2023-05-10T05:06:18.401Z,7508.00
2023-05-10T05:07:18.234Z,6024.00
2023-05-10T05:08:18.208Z,6864.00
2023-05-10T05:09:19.670Z,7428.00
2023-05-10T05:10:18.473Z,7888.00
2023-05-10T05:11:18.235Z,8824.00
2023-05-10T05:12:19.638Z,10592.00
2023-05-10T05:13:19.685Z,10944.00
2023-05-10T05:14:19.608Z,12256.00
2023-05-10T05:15:19.577Z,12228.00
2023-05-10T05:16:18.235Z,11572.00
2023-05-10T05:17:19.566Z,11328.00
2023-05-10T05:18:18.090Z,10916.00
2023-05-10T05:19:19.525Z,9640.00
2023-05-10T05:20:19.603Z,7704.00
2023-05-10T05:21:19.487Z,6640.00
2023-05-10T05:22:19.714Z,6388.00
2023-05-10T05:23:18.031Z,6748.00
2023-05-10T05:24:19.452Z,5908.00
2023-05-10T05:25:19.474Z,5260.00
2023-05-10T05:26:18.000Z,5164.00
2023-05-10T05:27:19.408Z,4860.00
2023-05-10T05:28:19.415Z,4924.00
2023-05-10T05:29:19.389Z,5464.00
2023-05-10T05:30:19.507Z,5804.00
2023-05-10T05:31:19.359Z,5852.00
2023-05-10T05:32:19.347Z,5504.00
2023-05-10T05:33:19.349Z,5340.00
2023-05-10T05:34:17.900Z,5340.00
2023-05-10T05:35:19.486Z,5676.00
2023-05-10T05:36:19.312Z,6556.00
2023-05-10T05:37:19.294Z,7764.00
2023-05-10T05:38:19.284Z,9580.00
2023-05-10T05:39:19.243Z,12596.00
2023-05-10T05:40:19.215Z,12812.00
2023-05-10T05:41:19.212Z,11752.00
2023-05-10T05:42:19.189Z,12436.00
2023-05-10T05:43:17.829Z,13160.00
2023-05-10T05:44:19.153Z,13700.00
2023-05-10T05:45:19.422Z,13928.00
2023-05-10T05:46:19.225Z,14916.00
2023-05-10T05:47:18.342Z,14140.00
2023-05-10T05:48:18.161Z,11540.00
2023-05-10T05:49:19.095Z,10440.00
2023-05-10T05:50:17.628Z,9064.00
2023-05-10T05:51:19.098Z,7716.00
2023-05-10T05:52:19.074Z,7080.00
2023-05-10T05:53:18.120Z,7388.00
2023-05-10T05:54:19.055Z,7812.00
2023-05-10T05:55:19.793Z,7948.00
2023-05-10T05:56:19.003Z,7568.00
2023-05-10T05:57:19.004Z,5784.00
2023-05-10T05:58:18.996Z,5516.00
2023-05-10T05:59:18.977Z,6536.00
2023-05-10T06:00:18.960Z,6768.00
2023-05-10T06:01:19.063Z,5228.00
2023-05-10T06:02:19.146Z,5144.00
2023-05-10T06:03:19.000Z,6236.00
2023-05-10T06:04:18.916Z,6296.00
2023-05-10T06:05:18.934Z,5536.00
2023-05-10T06:06:18.886Z,5396.00
2023-05-10T06:07:18.874Z,6304.00
2023-05-10T06:08:18.856Z,6356.00
2023-05-10T06:09:18.835Z,5388.00
2023-05-10T06:10:18.813Z,4944.00
2023-05-10T06:11:18.839Z,5252.00
2023-05-10T06:12:18.804Z,7080.00
2023-05-10T06:13:18.804Z,8108.00
2023-05-10T06:14:18.764Z,7776.00
2023-05-10T06:15:18.853Z,6072.00
2023-05-10T06:16:18.833Z,6540.00
2023-05-10T06:17:18.725Z,7940.00
2023-05-10T06:18:18.704Z,12152.00
2023-05-10T06:19:18.699Z,17344.00
2023-05-10T06:20:18.682Z,12288.00
2023-05-10T06:21:18.681Z,9424.00
2023-05-10T06:22:18.640Z,10356.00
2023-05-10T06:23:18.631Z,11920.00
2023-05-10T06:24:18.628Z,11808.00
2023-05-10T06:25:18.835Z,14488.00
2023-05-10T06:26:18.649Z,23136.00
2023-05-10T06:27:18.577Z,19136.00
2023-05-10T06:28:18.557Z,21664.00
2023-05-10T06:29:18.552Z,16944.00
2023-05-10T06:30:18.545Z,17472.00
2023-05-10T06:31:18.647Z,20320.00
2023-05-10T06:32:18.570Z,17760.00
2023-05-10T06:33:18.506Z,22496.00
2023-05-10T06:34:18.492Z,26112.00
2023-05-10T06:35:18.891Z,21312.00
2023-05-10T06:36:18.464Z,24864.00
2023-05-10T06:37:18.457Z,30496.00
2023-05-10T06:38:18.465Z,27808.00
2023-05-10T06:39:18.510Z,20800.00
2023-05-10T06:40:18.514Z,17760.00
2023-05-10T06:41:18.398Z,14356.00
2023-05-10T06:42:18.410Z,15176.00
2023-05-10T06:43:18.393Z,15512.00
2023-05-10T06:44:17.134Z,12668.00
2023-05-10T06:45:18.534Z,10492.00
2023-05-10T06:46:18.393Z,10732.00
2023-05-10T06:47:18.341Z,11004.00
2023-05-10T06:48:18.382Z,10732.00
2023-05-10T06:49:18.279Z,15576.00
2023-05-10T06:50:18.265Z,21920.00
2023-05-10T06:51:18.253Z,20032.00
2023-05-10T06:52:18.272Z,13868.00
2023-05-10T06:53:18.243Z,12824.00
2023-05-10T06:54:18.244Z,10768.00
2023-05-10T06:55:18.381Z,11204.00
2023-05-10T06:56:18.191Z,12424.00
2023-05-10T06:57:30.549Z,12856.00
2023-05-10T06:58:19.172Z,13200.00
2023-05-10T06:59:18.176Z,10968.00
2023-05-10T07:00:18.351Z,10300.00
2023-05-10T07:01:18.218Z,11544.00
2023-05-10T07:02:18.140Z,12976.00
2023-05-10T07:03:18.158Z,14384.00
2023-05-10T07:04:18.155Z,13220.00
2023-05-10T07:05:18.251Z,11788.00
2023-05-10T07:06:29.423Z,9944.00
2023-05-10T07:07:19.027Z,11312.00
2023-05-10T07:08:18.078Z,11276.00
2023-05-10T07:09:17.322Z,12000.00
2023-05-10T07:10:17.998Z,15572.00
2023-05-10T07:11:17.977Z,20192.00
2023-05-10T07:12:18.000Z,20320.00
2023-05-10T07:13:18.108Z,17984.00
2023-05-10T07:14:17.952Z,20224.00
2023-05-10T07:15:18.163Z,20096.00
2023-05-10T07:16:17.943Z,19232.00
2023-05-10T07:17:17.926Z,21056.00
2023-05-10T07:18:17.973Z,21152.00
2023-05-10T07:19:17.884Z,21120.00
2023-05-10T07:20:17.862Z,21216.00
2023-05-10T07:21:17.982Z,18496.00
2023-05-10T07:22:17.898Z,21024.00
2023-05-10T07:23:17.822Z,23392.00
2023-05-10T07:24:17.809Z,27456.00
2023-05-10T07:25:17.934Z,23712.00
2023-05-10T07:26:17.785Z,19040.00
2023-05-10T07:27:17.787Z,19040.00
2023-05-10T07:28:17.780Z,19008.00
2023-05-10T07:29:17.730Z,15916.00
2023-05-10T07:30:17.771Z,19136.00
2023-05-10T07:31:17.737Z,20896.00
2023-05-10T07:32:17.764Z,21760.00
2023-05-10T07:33:17.701Z,26688.00
2023-05-10T07:34:17.661Z,29344.00
2023-05-10T07:35:17.886Z,23296.00
2023-05-10T07:36:17.653Z,19040.00
2023-05-10T07:37:17.645Z,18720.00
2023-05-10T07:38:17.609Z,17888.00
2023-05-10T07:39:24.816Z,17248.00
2023-05-10T07:40:18.576Z,17152.00
2023-05-10T07:41:17.584Z,16132.00
2023-05-10T07:42:17.581Z,15232.00
2023-05-10T07:43:17.543Z,15400.00
2023-05-10T07:44:17.534Z,15340.00
2023-05-10T07:45:17.736Z,16084.00
2023-05-10T07:46:17.542Z,14564.00
2023-05-10T07:47:17.505Z,13304.00
2023-05-10T07:48:17.475Z,13956.00
2023-05-10T07:49:16.256Z,14696.00
2023-05-10T07:50:17.467Z,15788.00
2023-05-10T07:51:17.443Z,18464.00
2023-05-10T07:52:17.607Z,22848.00
2023-05-10T07:53:17.401Z,22560.00
2023-05-10T07:54:16.289Z,18848.00
2023-05-10T07:55:17.532Z,16736.00
2023-05-10T07:56:17.373Z,14620.00
2023-05-10T07:57:17.348Z,13604.00
2023-05-10T07:58:17.331Z,14968.00
2023-05-10T07:59:17.320Z,16512.00
2023-05-10T08:00:17.321Z,17088.00
2023-05-10T08:01:17.288Z,15820.00
2023-05-10T08:02:17.328Z,15720.00
2023-05-10T08:03:17.398Z,15924.00
2023-05-10T08:04:17.319Z,19776.00
2023-05-10T08:05:17.481Z,27552.00
2023-05-10T08:06:17.217Z,45664.00
2023-05-10T08:07:17.204Z,36960.00
2023-05-10T08:08:17.187Z,38080.00
2023-05-10T08:09:17.193Z,43840.00
2023-05-10T08:10:17.158Z,37312.00
2023-05-10T08:11:17.198Z,32832.00
2023-05-10T08:12:17.141Z,33664.00
2023-05-10T08:13:17.131Z,32800.00
2023-05-10T08:14:17.124Z,31616.00
2023-05-10T08:15:17.319Z,31776.00
2023-05-10T08:16:17.109Z,34080.00
2023-05-10T08:17:18.691Z,35392.00
2023-05-10T08:18:17.102Z,37664.00
2023-05-10T08:19:17.040Z,32480.00
2023-05-10T08:20:17.031Z,31328.00
2023-05-10T08:21:17.024Z,28672.00
2023-05-10T08:22:16.993Z,26304.00
2023-05-10T08:23:17.000Z,23968.00
2023-05-10T08:24:16.987Z,20960.00
2023-05-10T08:25:17.195Z,16864.00
2023-05-10T08:26:16.942Z,11920.00
2023-05-10T08:27:16.926Z,10376.00
2023-05-10T08:28:16.936Z,12016.00
2023-05-10T08:29:16.902Z,13356.00
2023-05-10T08:30:16.915Z,13732.00
2023-05-10T08:31:17.011Z,14832.00
2023-05-10T08:32:16.878Z,14948.00
2023-05-10T08:33:16.846Z,15544.00
2023-05-10T08:34:16.843Z,15880.00
2023-05-10T08:35:17.025Z,16016.00
2023-05-10T08:36:16.807Z,16040.00
2023-05-10T08:37:16.814Z,17024.00
2023-05-10T08:38:16.774Z,18688.00
2023-05-10T08:39:29.422Z,21376.00
2023-05-10T08:40:17.766Z,24928.00
2023-05-10T08:41:16.736Z,29024.00
2023-05-10T08:42:16.735Z,32352.00
2023-05-10T08:43:16.705Z,33856.00
2023-05-10T08:44:16.695Z,33664.00
2023-05-10T08:45:16.936Z,33216.00
2023-05-10T08:46:16.711Z,29856.00
2023-05-10T08:47:16.671Z,26720.00
2023-05-10T08:48:16.656Z,22368.00
2023-05-10T08:49:16.622Z,19840.00
2023-05-10T08:50:16.601Z,19136.00
2023-05-10T08:51:16.604Z,21280.00
2023-05-10T08:52:16.583Z,24192.00
2023-05-10T08:53:16.567Z,26336.00
2023-05-10T08:54:16.577Z,29056.00
2023-05-10T08:55:15.795Z,30240.00
2023-05-10T08:56:15.593Z,28960.00
2023-05-10T08:57:16.524Z,27616.00
2023-05-10T08:58:15.999Z,27168.00
2023-05-10T08:59:15.514Z,27552.00
2023-05-10T09:00:15.533Z,28640.00
2023-05-10T09:01:15.544Z,30400.00
2023-05-10T09:02:17.390Z,44320.00
2023-05-10T09:03:16.434Z,117216.00
2023-05-10T09:04:16.481Z,111520.00
2023-05-10T09:05:16.687Z,40864.00
2023-05-10T09:06:16.423Z,67744.00
2023-05-10T09:07:16.394Z,47072.00
2023-05-10T09:08:16.373Z,34400.00
2023-05-10T09:09:16.402Z,33536.00
2023-05-10T09:10:16.379Z,31712.00
2023-05-10T09:11:16.341Z,72416.00
2023-05-10T09:12:16.322Z,29152.00
2023-05-10T09:13:16.320Z,34144.00
2023-05-10T09:14:16.474Z,34976.00
2023-05-10T09:15:16.499Z,84064.00
2023-05-10T09:16:21.572Z,34912.00
2023-05-10T09:17:17.596Z,35680.00
2023-05-10T09:18:16.288Z,52384.00
2023-05-10T09:19:16.268Z,63648.00
2023-05-10T09:20:16.225Z,65696.00
2023-05-10T09:21:16.199Z,109248.00
2023-05-10T09:22:16.176Z,107008.00
2023-05-10T09:23:16.155Z,106336.00
2023-05-10T09:24:16.167Z,109504.00
2023-05-10T09:25:16.402Z,47776.00
2023-05-10T09:26:16.134Z,99168.00
2023-05-10T09:27:16.107Z,108192.00
2023-05-10T09:28:16.100Z,107136.00
2023-05-10T09:29:17.476Z,36416.00
2023-05-10T09:30:16.080Z,42144.00
2023-05-10T09:31:15.632Z,91520.00
2023-05-10T09:32:16.036Z,58528.00
2023-05-10T09:33:15.548Z,44928.00
2023-05-10T09:34:16.026Z,116448.00
2023-05-10T09:35:16.096Z,88416.00
2023-05-10T09:36:16.030Z,38432.00
2023-05-10T09:37:15.977Z,37824.00
2023-05-10T09:38:15.981Z,39392.00
2023-05-10T09:39:15.964Z,24096.00
2023-05-10T09:40:15.929Z,21632.00
2023-05-10T09:41:15.417Z,19552.00
2023-05-10T09:42:15.907Z,21376.00
2023-05-10T09:43:15.905Z,22688.00
2023-05-10T09:44:15.886Z,22560.00
2023-05-10T09:45:16.119Z,21760.00
2023-05-10T09:46:15.917Z,21088.00
2023-05-10T09:47:15.834Z,20832.00
2023-05-10T09:48:15.832Z,22048.00
2023-05-10T09:49:15.809Z,22368.00
2023-05-10T09:50:15.316Z,20192.00
2023-05-10T09:51:15.773Z,20704.00
2023-05-10T09:52:15.775Z,23552.00
2023-05-10T09:53:15.774Z,27680.00
2023-05-10T09:54:15.741Z,32096.00
2023-05-10T09:55:15.960Z,35296.00
2023-05-10T09:56:15.708Z,43328.00
2023-05-10T09:57:15.717Z,44608.00
2023-05-10T09:58:15.729Z,99520.00
2023-05-10T09:59:15.675Z,40448.00
2023-05-10T10:00:15.669Z,54816.00
2023-05-10T10:01:15.662Z,35392.00
2023-05-10T10:02:15.653Z,34976.00
2023-05-10T10:03:15.151Z,36448.00
2023-05-10T10:04:15.616Z,39840.00
2023-05-10T10:05:15.779Z,50880.00
2023-05-10T10:06:26.363Z,46912.00
2023-05-10T10:07:16.590Z,46752.00
2023-05-10T10:08:15.563Z,43776.00
2023-05-10T10:09:15.553Z,60096.00
2023-05-10T10:10:15.537Z,39776.00
2023-05-10T10:11:15.535Z,39296.00
2023-05-10T10:12:15.500Z,39456.00
2023-05-10T10:13:15.477Z,39040.00
2023-05-10T10:14:15.466Z,39904.00
2023-05-10T10:15:16.944Z,42656.00
2023-05-10T10:16:15.476Z,47968.00
2023-05-10T10:17:15.465Z,41120.00
2023-05-10T10:18:15.574Z,41504.00
2023-05-10T10:19:15.404Z,42016.00
2023-05-10T10:20:15.593Z,40000.00
2023-05-10T10:21:15.399Z,41472.00
2023-05-10T10:22:15.365Z,44128.00
2023-05-10T10:23:17.554Z,56416.00
2023-05-10T10:24:15.516Z,72704.00
2023-05-10T10:25:15.508Z,132480.00
2023-05-10T10:26:15.323Z,115104.00
2023-05-10T10:27:15.301Z,42336.00
2023-05-10T10:28:15.281Z,43072.00
2023-05-10T10:29:15.274Z,39168.00
2023-05-10T10:30:15.411Z,35168.00
2023-05-10T10:31:15.331Z,32928.00
2023-05-10T10:32:15.231Z,32672.00
2023-05-10T10:33:27.443Z,34464.00
2023-05-10T10:34:16.218Z,38880.00
2023-05-10T10:35:15.321Z,44384.00
2023-05-10T10:36:15.173Z,45824.00
2023-05-10T10:37:15.159Z,82368.00
2023-05-10T10:38:15.149Z,44480.00
2023-05-10T10:39:15.132Z,41664.00
2023-05-10T10:40:15.198Z,35072.00
2023-05-10T10:41:14.231Z,30688.00
2023-05-10T10:42:15.088Z,28000.00
2023-05-10T10:43:15.079Z,27136.00
2023-05-10T10:44:15.092Z,27712.00
2023-05-10T10:45:15.365Z,29152.00
2023-05-10T10:46:15.148Z,30656.00
2023-05-10T10:47:15.032Z,29408.00
2023-05-10T10:48:15.018Z,28032.00
2023-05-10T10:49:15.027Z,29056.00
2023-05-10T10:50:14.981Z,31424.00
2023-05-10T10:51:14.953Z,33184.00
2023-05-10T10:52:14.949Z,35104.00
2023-05-10T10:53:14.988Z,34688.00
2023-05-10T10:54:14.930Z,33440.00
2023-05-10T10:55:15.100Z,33280.00
2023-05-10T10:56:14.899Z,33984.00
2023-05-10T10:57:14.903Z,34912.00
2023-05-10T10:58:14.871Z,36224.00
2023-05-10T10:59:14.878Z,38208.00
2023-05-10T11:00:14.869Z,40992.00
2023-05-10T11:01:14.855Z,47424.00
2023-05-10T11:02:14.815Z,50784.00
2023-05-10T11:03:14.853Z,90464.00
2023-05-10T11:04:14.864Z,78528.00
2023-05-10T11:05:15.022Z,76128.00
2023-05-10T11:06:14.785Z,74752.00
2023-05-10T11:07:14.757Z,61952.00
2023-05-10T11:08:14.746Z,60928.00
2023-05-10T11:09:14.750Z,59584.00
2023-05-10T11:10:13.768Z,70976.00
2023-05-10T11:11:14.732Z,152992.00
2023-05-10T11:12:14.745Z,150880.00
2023-05-10T11:13:14.695Z,78880.00
2023-05-10T11:14:14.657Z,64320.00
2023-05-10T11:15:14.840Z,104064.00
2023-05-10T11:16:14.771Z,45376.00
2023-05-10T11:17:14.744Z,39424.00
2023-05-10T11:18:14.622Z,63552.00
2023-05-10T11:19:14.819Z,46208.00
2023-05-10T11:20:14.756Z,51776.00
2023-05-10T11:21:14.550Z,54720.00
2023-05-10T11:22:14.574Z,55424.00
2023-05-10T11:23:14.531Z,53120.00
2023-05-10T11:24:14.528Z,61824.00
2023-05-10T11:25:14.516Z,43040.00
2023-05-10T11:26:13.361Z,38368.00
2023-05-10T11:27:14.494Z,32640.00
2023-05-10T11:28:14.481Z,27392.00
2023-05-10T11:29:14.451Z,22688.00
2023-05-10T11:30:14.658Z,20064.00
2023-05-10T11:31:14.489Z,18624.00
2023-05-10T11:32:14.428Z,17056.00
2023-05-10T11:33:14.410Z,16832.00
2023-05-10T11:34:14.367Z,18592.00
2023-05-10T11:35:14.368Z,21088.00
2023-05-10T11:36:14.379Z,24064.00
2023-05-10T11:37:14.341Z,27232.00
2023-05-10T11:38:14.324Z,30400.00
2023-05-10T11:39:14.322Z,33408.00
2023-05-10T11:40:13.617Z,37248.00
2023-05-10T11:41:14.303Z,40832.00
2023-05-10T11:42:14.271Z,42848.00
2023-05-10T11:43:14.282Z,43648.00
2023-05-10T11:44:14.242Z,45792.00
2023-05-10T11:45:14.249Z,48736.00
2023-05-10T11:46:14.266Z,50912.00
2023-05-10T11:47:14.220Z,53056.00
2023-05-10T11:48:14.254Z,57120.00
2023-05-10T11:49:14.183Z,59808.00
2023-05-10T11:50:12.855Z,60576.00
2023-05-10T11:51:14.159Z,61792.00
2023-05-10T11:52:14.142Z,91104.00
2023-05-10T11:53:14.127Z,81440.00
2023-05-10T11:54:14.150Z,72480.00
2023-05-10T11:55:14.109Z,117376.00
2023-05-10T11:56:14.106Z,135648.00
2023-05-10T11:57:14.074Z,83552.00
2023-05-10T11:58:14.052Z,55264.00
2023-05-10T11:59:14.071Z,63072.00
2023-05-10T12:00:14.113Z,55424.00
2023-05-10T12:01:14.034Z,48608.00
2023-05-10T12:02:14.043Z,40416.00
2023-05-10T12:03:14.021Z,40704.00
2023-05-10T12:04:14.135Z,41024.00
2023-05-10T12:05:13.984Z,48416.00
2023-05-10T12:06:13.934Z,55392.00
2023-05-10T12:07:13.987Z,58880.00
2023-05-10T12:08:13.913Z,55840.00
2023-05-10T12:09:13.922Z,71264.00
2023-05-10T12:10:13.996Z,72160.00
2023-05-10T12:11:13.879Z,56608.00
2023-05-10T12:12:13.850Z,38880.00
2023-05-10T12:13:13.842Z,36768.00
2023-05-10T12:14:13.844Z,37856.00
2023-05-10T12:15:13.927Z,41056.00